sensor_id;sensor_type;location;lat;lon;timestamp;pressure;altitude;pressure_sealevel;temperature
22286;BMP180;11311;52.192;20.900;2023-08-06T00:00:55;99144.22;;;19.81
22286;BMP180;11311;52.192;20.900;2023-08-06T00:03:23;99152.56;;;19.79
22286;BMP180;11311;52.192;20.900;2023-08-06T00:05:52;99157.94;;;19.79
22286;BMP180;11311;52.192;20.900;2023-08-06T00:08:21;99169.72;;;19.78
22286;BMP180;11311;52.192;20.900;2023-08-06T00:10:50;99181.63;;;19.72
22286;BMP180;11311;52.192;20.900;2023-08-06T00:13:19;99184.00;;;19.65
22286;BMP180;11311;52.192;20.900;2023-08-06T00:15:48;99178.41;;;19.53
22286;BMP180;11311;52.192;20.900;2023-08-06T00:18:18;99174.72;;;19.49
22286;BMP180;11311;52.192;20.900;2023-08-06T00:20:46;99165.44;;;19.47
22286;BMP180;11311;52.192;20.900;2023-08-06T00:23:16;99166.03;;;19.43
22286;BMP180;11311;52.192;20.900;2023-08-06T00:25:45;99148.69;;;19.41
22286;BMP180;11311;52.192;20.900;2023-08-06T00:28:13;99154.03;;;19.41
22286;BMP180;11311;52.192;20.900;2023-08-06T00:30:42;99145.25;;;19.40
22286;BMP180;11311;52.192;20.900;2023-08-06T00:33:12;99133.75;;;19.40
22286;BMP180;11311;52.192;20.900;2023-08-06T00:35:42;99119.84;;;19.38
22286;BMP180;11311;52.192;20.900;2023-08-06T00:38:11;99115.31;;;19.38
22286;BMP180;11311;52.192;20.900;2023-08-06T00:40:39;99113.91;;;19.41
22286;BMP180;11311;52.192;20.900;2023-08-06T00:43:08;99111.84;;;19.38
22286;BMP180;11311;52.192;20.900;2023-08-06T00:45:37;99106.00;;;19.36
22286;BMP180;11311;52.192;20.900;2023-08-06T00:48:06;99089.94;;;19.36
22286;BMP180;11311;52.192;20.900;2023-08-06T00:50:35;99092.63;;;19.36
22286;BMP180;11311;52.192;20.900;2023-08-06T00:53:06;99083.00;;;19.35
22286;BMP180;11311;52.192;20.900;2023-08-06T00:55:34;99060.31;;;19.32
22286;BMP180;11311;52.192;20.900;2023-08-06T00:58:04;99055.78;;;19.33
22286;BMP180;11311;52.192;20.900;2023-08-06T01:00:33;99036.06;;;19.29
22286;BMP180;11311;52.192;20.900;2023-08-06T01:03:02;99040.44;;;19.25
22286;BMP180;11311;52.192;20.900;2023-08-06T01:05:31;99025.19;;;19.25
22286;BMP180;11311;52.192;20.900;2023-08-06T01:08:15;99022.81;;;19.24
22286;BMP180;11311;52.192;20.900;2023-08-06T01:11:05;99017.44;;;19.24
22286;BMP180;11311;52.192;20.900;2023-08-06T01:13:42;99008.97;;;19.22
22286;BMP180;11311;52.192;20.900;2023-08-06T01:16:11;98997.16;;;19.23
22286;BMP180;11311;52.192;20.900;2023-08-06T01:18:42;98996.06;;;19.24
22286;BMP180;11311;52.192;20.900;2023-08-06T01:21:15;98976.25;;;19.25
22286;BMP180;11311;52.192;20.900;2023-08-06T01:23:45;98951.09;;;19.26
22286;BMP180;11311;52.192;20.900;2023-08-06T01:26:22;98929.69;;;19.26
22286;BMP180;11311;52.192;20.900;2023-08-06T01:28:58;98929.69;;;19.26
22286;BMP180;11311;52.192;20.900;2023-08-06T01:31:30;98920.06;;;19.25
22286;BMP180;11311;52.192;20.900;2023-08-06T01:34:01;98913.13;;;19.24
22286;BMP180;11311;52.192;20.900;2023-08-06T01:36:33;98915.00;;;19.23
22286;BMP180;11311;52.192;20.900;2023-08-06T01:39:04;98906.22;;;19.23
22286;BMP180;11311;52.192;20.900;2023-08-06T01:41:33;98894.41;;;19.24
22286;BMP180;11311;52.192;20.900;2023-08-06T01:44:03;98886.09;;;19.25
22286;BMP180;11311;52.192;20.900;2023-08-06T01:46:32;98877.75;;;19.27
22286;BMP180;11311;52.192;20.900;2023-08-06T01:49:01;98875.09;;;19.27
22286;BMP180;11311;52.192;20.900;2023-08-06T01:51:30;98870.19;;;19.29
22286;BMP180;11311;52.192;20.900;2023-08-06T01:54:00;98875.53;;;19.29
22286;BMP180;11311;52.192;20.900;2023-08-06T01:56:29;98878.84;;;19.26
22286;BMP180;11311;52.192;20.900;2023-08-06T01:58:58;98873.78;;;19.24
22286;BMP180;11311;52.192;20.900;2023-08-06T02:01:31;98872.41;;;19.27
22286;BMP180;11311;52.192;20.900;2023-08-06T02:04:00;98868.00;;;19.31
22286;BMP180;11311;52.192;20.900;2023-08-06T02:06:29;98876.97;;;19.35
22286;BMP180;11311;52.192;20.900;2023-08-06T02:08:57;98882.81;;;19.37
22286;BMP180;11311;52.192;20.900;2023-08-06T02:11:28;98877.97;;;19.39
22286;BMP180;11311;52.192;20.900;2023-08-06T02:13:57;98862.38;;;19.41
22286;BMP180;11311;52.192;20.900;2023-08-06T02:16:25;98851.66;;;19.41
22286;BMP180;11311;52.192;20.900;2023-08-06T02:18:54;98854.81;;;19.43
22286;BMP180;11311;52.192;20.900;2023-08-06T02:21:23;98855.59;;;19.43
22286;BMP180;11311;52.192;20.900;2023-08-06T02:23:53;98842.09;;;19.40
22286;BMP180;11311;52.192;20.900;2023-08-06T02:26:22;98844.75;;;19.40
22286;BMP180;11311;52.192;20.900;2023-08-06T02:28:52;98847.44;;;19.40
22286;BMP180;11311;52.192;20.900;2023-08-06T02:31:20;98851.34;;;19.42
22286;BMP180;11311;52.192;20.900;2023-08-06T02:33:49;98869.28;;;19.42
22286;BMP180;11311;52.192;20.900;2023-08-06T02:36:18;98855.91;;;19.42
22286;BMP180;11311;52.192;20.900;2023-08-06T02:38:47;98851.06;;;19.44
22286;BMP180;11311;52.192;20.900;2023-08-06T02:41:16;98841.28;;;19.48
22286;BMP180;11311;52.192;20.900;2023-08-06T02:43:45;98834.53;;;19.51
22286;BMP180;11311;52.192;20.900;2023-08-06T02:46:15;98843.84;;;19.53
22286;BMP180;11311;52.192;20.900;2023-08-06T02:48:44;98833.91;;;19.54
22286;BMP180;11311;52.192;20.900;2023-08-06T02:51:13;98823.97;;;19.54
22286;BMP180;11311;52.192;20.900;2023-08-06T02:53:42;98830.13;;;19.55
22286;BMP180;11311;52.192;20.900;2023-08-06T02:56:14;98812.16;;;19.55
22286;BMP180;11311;52.192;20.900;2023-08-06T02:58:54;98817.22;;;19.57
22286;BMP180;11311;52.192;20.900;2023-08-06T03:01:44;98801.97;;;19.57
22286;BMP180;11311;52.192;20.900;2023-08-06T03:04:20;98804.63;;;19.57
22286;BMP180;11311;52.192;20.900;2023-08-06T03:06:49;98799.59;;;19.56
22286;BMP180;11311;52.192;20.900;2023-08-06T03:09:22;98791.25;;;19.57
22286;BMP180;11311;52.192;20.900;2023-08-06T03:11:52;98792.50;;;19.60
22286;BMP180;11311;52.192;20.900;2023-08-06T03:14:21;98780.69;;;19.61
22286;BMP180;11311;52.192;20.900;2023-08-06T03:16:51;98781.66;;;19.65
22286;BMP180;11311;52.192;20.900;2023-08-06T03:19:20;98772.84;;;19.64
22286;BMP180;11311;52.192;20.900;2023-08-06T03:21:49;98767.16;;;19.66
22286;BMP180;11311;52.192;20.900;2023-08-06T03:24:18;98761.03;;;19.65
22286;BMP180;11311;52.192;20.900;2023-08-06T03:26:47;98751.09;;;19.66
22286;BMP180;11311;52.192;20.900;2023-08-06T03:29:16;98743.53;;;19.68
22286;BMP180;11311;52.192;20.900;2023-08-06T03:31:46;98741.66;;;19.68
22286;BMP180;11311;52.192;20.900;2023-08-06T03:34:18;98727.19;;;19.69
22286;BMP180;11311;52.192;20.900;2023-08-06T03:36:50;98729.06;;;19.69
22286;BMP180;11311;52.192;20.900;2023-08-06T03:39:19;98726.88;;;19.71
22286;BMP180;11311;52.192;20.900;2023-08-06T03:41:47;98712.34;;;19.72
22286;BMP180;11311;52.192;20.900;2023-08-06T03:44:17;98705.59;;;19.74
22286;BMP180;11311;52.192;20.900;2023-08-06T03:46:48;98692.22;;;19.74
22286;BMP180;11311;52.192;20.900;2023-08-06T03:49:18;98687.31;;;19.76
22286;BMP180;11311;52.192;20.900;2023-08-06T03:51:47;98685.09;;;19.78
22286;BMP180;11311;52.192;20.900;2023-08-06T03:54:16;98676.78;;;19.80
22286;BMP180;11311;52.192;20.900;2023-08-06T03:56:46;98681.78;;;19.81
22286;BMP180;11311;52.192;20.900;2023-08-06T03:59:16;98668.53;;;19.85
22286;BMP180;11311;52.192;20.900;2023-08-06T04:01:46;98666.50;;;19.90
22286;BMP180;11311;52.192;20.900;2023-08-06T04:04:15;98662.09;;;19.94
22286;BMP180;11311;52.192;20.900;2023-08-06T04:06:46;98658.31;;;19.95
22286;BMP180;11311;52.192;20.900;2023-08-06T04:09:14;98650.91;;;19.92
22286;BMP180;11311;52.192;20.900;2023-08-06T04:11:44;98652.28;;;19.98
22286;BMP180;11311;52.192;20.900;2023-08-06T04:14:12;98644.75;;;20.00
22286;BMP180;11311;52.192;20.900;2023-08-06T04:16:41;98644.09;;;20.03
22286;BMP180;11311;52.192;20.900;2023-08-06T04:19:10;98634.78;;;20.10
22286;BMP180;11311;52.192;20.900;2023-08-06T04:21:41;98636.03;;;20.12
22286;BMP180;11311;52.192;20.900;2023-08-06T04:24:12;98635.06;;;20.17
22286;BMP180;11311;52.192;20.900;2023-08-06T04:26:41;98635.38;;;20.15
22286;BMP180;11311;52.192;20.900;2023-08-06T04:29:10;98629.53;;;20.22
22286;BMP180;11311;52.192;20.900;2023-08-06T04:31:38;98627.31;;;20.24
22286;BMP180;11311;52.192;20.900;2023-08-06T04:34:08;98619.88;;;20.29
22286;BMP180;11311;52.192;20.900;2023-08-06T04:36:38;98621.31;;;20.27
22286;BMP180;11311;52.192;20.900;2023-08-06T04:39:09;98606.44;;;20.38
22286;BMP180;11311;52.192;20.900;2023-08-06T04:41:39;98605.13;;;20.44
22286;BMP180;11311;52.192;20.900;2023-08-06T04:44:08;98603.19;;;20.53
22286;BMP180;11311;52.192;20.900;2023-08-06T04:46:36;98596.53;;;20.59
22286;BMP180;11311;52.192;20.900;2023-08-06T04:49:05;98601.84;;;20.67
22286;BMP180;11311;52.192;20.900;2023-08-06T04:51:34;98598.19;;;20.72
22286;BMP180;11311;52.192;20.900;2023-08-06T04:54:03;98601.22;;;20.83
22286;BMP180;11311;52.192;20.900;2023-08-06T04:56:32;98593.13;;;20.91
22286;BMP180;11311;52.192;20.900;2023-08-06T04:59:03;98589.97;;;20.89
22286;BMP180;11311;52.192;20.900;2023-08-06T05:01:31;98594.19;;;20.99
22286;BMP180;11311;52.192;20.900;2023-08-06T05:04:00;98591.16;;;21.00
22286;BMP180;11311;52.192;20.900;2023-08-06T05:06:29;98588.94;;;21.02
22286;BMP180;11311;52.192;20.900;2023-08-06T05:08:59;98579.38;;;21.13
22286;BMP180;11311;52.192;20.900;2023-08-06T05:11:28;98569.19;;;21.19
22286;BMP180;11311;52.192;20.900;2023-08-06T05:13:57;98564.16;;;21.17
22286;BMP180;11311;52.192;20.900;2023-08-06T05:16:27;98564.56;;;21.28
22286;BMP180;11311;52.192;20.900;2023-08-06T05:18:56;98569.38;;;21.34
22286;BMP180;11311;52.192;20.900;2023-08-06T05:21:25;98573.63;;;21.48
22286;BMP180;11311;52.192;20.900;2023-08-06T05:23:54;98570.94;;;21.48
22286;BMP180;11311;52.192;20.900;2023-08-06T05:26:23;98560.22;;;21.60
22286;BMP180;11311;52.192;20.900;2023-08-06T05:28:51;98553.41;;;21.62
22286;BMP180;11311;52.192;20.900;2023-08-06T05:31:20;98551.31;;;21.68
22286;BMP180;11311;52.192;20.900;2023-08-06T05:33:52;98540.09;;;21.78
22286;BMP180;11311;52.192;20.900;2023-08-06T05:36:20;98545.72;;;21.85
22286;BMP180;11311;52.192;20.900;2023-08-06T05:38:49;98543.38;;;22.08
22286;BMP180;11311;52.192;20.900;2023-08-06T05:41:18;98537.41;;;22.14
22286;BMP180;11311;52.192;20.900;2023-08-06T05:43:47;98532.03;;;22.26
22286;BMP180;11311;52.192;20.900;2023-08-06T05:46:16;98538.25;;;22.42
22286;BMP180;11311;52.192;20.900;2023-08-06T05:48:45;98525.41;;;22.51
22286;BMP180;11311;52.192;20.900;2023-08-06T05:51:15;98522.53;;;22.56
22286;BMP180;11311;52.192;20.900;2023-08-06T05:53:44;98514.47;;;22.56
22286;BMP180;11311;52.192;20.900;2023-08-06T05:56:14;98509.13;;;22.72
22286;BMP180;11311;52.192;20.900;2023-08-06T05:58:42;98507.94;;;22.85
22286;BMP180;11311;52.192;20.900;2023-08-06T06:01:14;98509.72;;;23.09
22286;BMP180;11311;52.192;20.900;2023-08-06T06:03:43;98505.13;;;23.25
22286;BMP180;11311;52.192;20.900;2023-08-06T06:06:12;98508.31;;;23.30
22286;BMP180;11311;52.192;20.900;2023-08-06T06:08:45;98505.09;;;23.56
22286;BMP180;11311;52.192;20.900;2023-08-06T06:11:13;98498.41;;;23.66
22286;BMP180;11311;52.192;20.900;2023-08-06T06:13:42;98499.81;;;23.94
22286;BMP180;11311;52.192;20.900;2023-08-06T06:16:11;98495.28;;;23.98
22286;BMP180;11311;52.192;20.900;2023-08-06T06:18:40;98503.75;;;23.81
22286;BMP180;11311;52.192;20.900;2023-08-06T06:21:09;98487.09;;;23.76
22286;BMP180;11311;52.192;20.900;2023-08-06T06:23:38;98483.31;;;23.80
22286;BMP180;11311;52.192;20.900;2023-08-06T06:26:09;98478.94;;;23.91
22286;BMP180;11311;52.192;20.900;2023-08-06T06:28:38;98466.91;;;24.04
22286;BMP180;11311;52.192;20.900;2023-08-06T06:31:06;98469.16;;;24.02
22286;BMP180;11311;52.192;20.900;2023-08-06T06:33:36;98471.31;;;23.93
22286;BMP180;11311;52.192;20.900;2023-08-06T06:36:05;98476.75;;;23.62
22286;BMP180;11311;52.192;20.900;2023-08-06T06:38:35;98469.75;;;23.58
22286;BMP180;11311;52.192;20.900;2023-08-06T06:41:04;98464.03;;;23.78
22286;BMP180;11311;52.192;20.900;2023-08-06T06:43:34;98471.38;;;23.62
22286;BMP180;11311;52.192;20.900;2023-08-06T06:46:05;98460.06;;;23.72
22286;BMP180;11311;52.192;20.900;2023-08-06T06:48:34;98454.41;;;23.77
22286;BMP180;11311;52.192;20.900;2023-08-06T06:51:03;98452.88;;;23.95
22286;BMP180;11311;52.192;20.900;2023-08-06T06:53:31;98449.16;;;23.84
22286;BMP180;11311;52.192;20.900;2023-08-06T06:56:04;98447.59;;;23.64
22286;BMP180;11311;52.192;20.900;2023-08-06T06:58:34;98447.47;;;23.95
22286;BMP180;11311;52.192;20.900;2023-08-06T07:01:03;98441.34;;;24.37
22286;BMP180;11311;52.192;20.900;2023-08-06T07:03:32;98445.47;;;24.50
22286;BMP180;11311;52.192;20.900;2023-08-06T07:06:01;98456.75;;;24.78
22286;BMP180;11311;52.192;20.900;2023-08-06T07:08:31;98452.66;;;24.65
22286;BMP180;11311;52.192;20.900;2023-08-06T07:11:01;98457.72;;;24.66
22286;BMP180;11311;52.192;20.900;2023-08-06T07:13:30;98452.56;;;25.03
22286;BMP180;11311;52.192;20.900;2023-08-06T07:16:00;98459.53;;;25.30
22286;BMP180;11311;52.192;20.900;2023-08-06T07:18:29;98457.88;;;25.48
22286;BMP180;11311;52.192;20.900;2023-08-06T07:20:58;98451.88;;;25.58
22286;BMP180;11311;52.192;20.900;2023-08-06T07:23:27;98455.59;;;25.50
22286;BMP180;11311;52.192;20.900;2023-08-06T07:25:56;98453.28;;;25.26
22286;BMP180;11311;52.192;20.900;2023-08-06T07:28:24;98453.22;;;25.49
22286;BMP180;11311;52.192;20.900;2023-08-06T07:30:53;98445.72;;;25.61
22286;BMP180;11311;52.192;20.900;2023-08-06T07:33:24;98451.66;;;26.04
22286;BMP180;11311;52.192;20.900;2023-08-06T07:35:52;98445.22;;;25.86
22286;BMP180;11311;52.192;20.900;2023-08-06T07:38:23;98439.72;;;26.45
22286;BMP180;11311;52.192;20.900;2023-08-06T07:40:53;98434.31;;;26.45
22286;BMP180;11311;52.192;20.900;2023-08-06T07:43:22;98438.81;;;26.30
22286;BMP180;11311;52.192;20.900;2023-08-06T07:45:51;98440.34;;;26.28
22286;BMP180;11311;52.192;20.900;2023-08-06T07:48:20;98440.06;;;26.80
22286;BMP180;11311;52.192;20.900;2023-08-06T07:50:52;98434.06;;;27.11
22286;BMP180;11311;52.192;20.900;2023-08-06T07:53:23;98445.34;;;26.66
22286;BMP180;11311;52.192;20.900;2023-08-06T07:55:54;98446.88;;;27.18
22286;BMP180;11311;52.192;20.900;2023-08-06T07:58:23;98439.59;;;26.31
22286;BMP180;11311;52.192;20.900;2023-08-06T08:00:52;98443.44;;;26.30
22286;BMP180;11311;52.192;20.900;2023-08-06T08:03:21;98436.78;;;26.20
22286;BMP180;11311;52.192;20.900;2023-08-06T08:05:54;98428.69;;;26.64
22286;BMP180;11311;52.192;20.900;2023-08-06T08:08:26;98421.00;;;27.24
22286;BMP180;11311;52.192;20.900;2023-08-06T08:10:55;98418.72;;;27.26
22286;BMP180;11311;52.192;20.900;2023-08-06T08:13:26;98413.47;;;27.65
22286;BMP180;11311;52.192;20.900;2023-08-06T08:15:57;98403.50;;;27.93
22286;BMP180;11311;52.192;20.900;2023-08-06T08:18:27;98409.00;;;28.46
22286;BMP180;11311;52.192;20.900;2023-08-06T08:20:57;98402.38;;;28.08
22286;BMP180;11311;52.192;20.900;2023-08-06T08:23:26;98419.06;;;28.35
22286;BMP180;11311;52.192;20.900;2023-08-06T08:25:54;98415.84;;;27.77
22286;BMP180;11311;52.192;20.900;2023-08-06T08:28:23;98413.66;;;28.42
22286;BMP180;11311;52.192;20.900;2023-08-06T08:30:52;98412.75;;;27.75
22286;BMP180;11311;52.192;20.900;2023-08-06T08:33:22;98402.00;;;28.31
22286;BMP180;11311;52.192;20.900;2023-08-06T08:35:51;98401.28;;;28.45
22286;BMP180;11311;52.192;20.900;2023-08-06T08:38:23;98398.03;;;27.76
22286;BMP180;11311;52.192;20.900;2023-08-06T08:40:53;98398.88;;;28.01
22286;BMP180;11311;52.192;20.900;2023-08-06T08:43:23;98397.34;;;28.21
22286;BMP180;11311;52.192;20.900;2023-08-06T08:45:53;98397.38;;;28.81
22286;BMP180;11311;52.192;20.900;2023-08-06T08:48:26;98407.31;;;27.78
22286;BMP180;11311;52.192;20.900;2023-08-06T08:50:56;98391.94;;;28.49
22286;BMP180;11311;52.192;20.900;2023-08-06T08:53:26;98396.59;;;28.84
22286;BMP180;11311;52.192;20.900;2023-08-06T08:55:56;98383.41;;;28.61
22286;BMP180;11311;52.192;20.900;2023-08-06T08:58:25;98383.66;;;29.27
22286;BMP180;11311;52.192;20.900;2023-08-06T09:00:54;98376.34;;;29.06
22286;BMP180;11311;52.192;20.900;2023-08-06T09:03:23;98365.41;;;29.31
22286;BMP180;11311;52.192;20.900;2023-08-06T09:05:54;98367.31;;;30.03
22286;BMP180;11311;52.192;20.900;2023-08-06T09:08:30;98368.81;;;30.14
22286;BMP180;11311;52.192;20.900;2023-08-06T09:11:02;98365.94;;;30.72
22286;BMP180;11311;52.192;20.900;2023-08-06T09:13:33;98362.25;;;30.49
22286;BMP180;11311;52.192;20.900;2023-08-06T09:16:02;98354.38;;;30.61
22286;BMP180;11311;52.192;20.900;2023-08-06T09:18:31;98354.78;;;31.27
22286;BMP180;11311;52.192;20.900;2023-08-06T09:21:00;98352.91;;;31.21
22286;BMP180;11311;52.192;20.900;2023-08-06T09:23:31;98351.13;;;30.36
22286;BMP180;11311;52.192;20.900;2023-08-06T09:26:01;98346.59;;;29.61
22286;BMP180;11311;52.192;20.900;2023-08-06T09:28:39;98349.63;;;30.65
22286;BMP180;11311;52.192;20.900;2023-08-06T09:31:11;98340.03;;;30.91
22286;BMP180;11311;52.192;20.900;2023-08-06T09:33:40;98338.66;;;30.35
22286;BMP180;11311;52.192;20.900;2023-08-06T09:36:09;98336.19;;;31.19
22286;BMP180;11311;52.192;20.900;2023-08-06T09:38:40;98332.66;;;31.18
22286;BMP180;11311;52.192;20.900;2023-08-06T09:41:09;98340.59;;;31.09
22286;BMP180;11311;52.192;20.900;2023-08-06T09:43:41;98349.06;;;30.47
22286;BMP180;11311;52.192;20.900;2023-08-06T09:46:11;98330.75;;;30.07
22286;BMP180;11311;52.192;20.900;2023-08-06T09:48:45;98346.31;;;30.03
22286;BMP180;11311;52.192;20.900;2023-08-06T09:51:14;98322.34;;;31.86
22286;BMP180;11311;52.192;20.900;2023-08-06T09:53:46;98321.91;;;31.08
22286;BMP180;11311;52.192;20.900;2023-08-06T09:56:17;98330.22;;;30.63
22286;BMP180;11311;52.192;20.900;2023-08-06T09:58:47;98345.81;;;30.59
22286;BMP180;11311;52.192;20.900;2023-08-06T10:01:17;98319.50;;;31.70
22286;BMP180;11311;52.192;20.900;2023-08-06T10:03:48;98319.97;;;31.65
22286;BMP180;11311;52.192;20.900;2023-08-06T10:06:18;98325.16;;;30.21
22286;BMP180;11311;52.192;20.900;2023-08-06T10:08:50;98295.72;;;30.53
22286;BMP180;11311;52.192;20.900;2023-08-06T10:11:21;98313.13;;;30.59
22286;BMP180;11311;52.192;20.900;2023-08-06T10:13:55;98311.31;;;30.86
22286;BMP180;11311;52.192;20.900;2023-08-06T10:16:27;98304.94;;;30.97
22286;BMP180;11311;52.192;20.900;2023-08-06T10:18:57;98304.28;;;30.85
22286;BMP180;11311;52.192;20.900;2023-08-06T10:21:26;98294.97;;;31.17
22286;BMP180;11311;52.192;20.900;2023-08-06T10:23:59;98300.56;;;31.82
22286;BMP180;11311;52.192;20.900;2023-08-06T10:26:29;98285.22;;;31.16
22286;BMP180;11311;52.192;20.900;2023-08-06T10:28:58;98277.38;;;31.18
22286;BMP180;11311;52.192;20.900;2023-08-06T10:31:53;98275.53;;;30.81
22286;BMP180;11311;52.192;20.900;2023-08-06T10:34:23;98285.31;;;30.41
22286;BMP180;11311;52.192;20.900;2023-08-06T10:36:54;98268.41;;;30.90
22286;BMP180;11311;52.192;20.900;2023-08-06T10:39:25;98271.59;;;30.85
22286;BMP180;11311;52.192;20.900;2023-08-06T10:41:57;98264.53;;;31.45
22286;BMP180;11311;52.192;20.900;2023-08-06T10:44:27;98253.06;;;31.04
22286;BMP180;11311;52.192;20.900;2023-08-06T10:47:26;98263.19;;;30.73
22286;BMP180;11311;52.192;20.900;2023-08-06T10:49:55;98261.59;;;30.01
22286;BMP180;11311;52.192;20.900;2023-08-06T10:52:24;98277.47;;;29.58
22286;BMP180;11311;52.192;20.900;2023-08-06T10:54:55;98267.44;;;29.48
22286;BMP180;11311;52.192;20.900;2023-08-06T10:57:24;98267.56;;;29.24
22286;BMP180;11311;52.192;20.900;2023-08-06T10:59:53;98257.53;;;29.17
22286;BMP180;11311;52.192;20.900;2023-08-06T11:02:42;98262.22;;;29.17
22286;BMP180;11311;52.192;20.900;2023-08-06T11:05:12;98251.38;;;29.10
22286;BMP180;11311;52.192;20.900;2023-08-06T11:07:40;98249.84;;;29.01
22286;BMP180;11311;52.192;20.900;2023-08-06T11:10:12;98254.81;;;29.17
22286;BMP180;11311;52.192;20.900;2023-08-06T11:12:41;98255.28;;;28.94
22286;BMP180;11311;52.192;20.900;2023-08-06T11:15:10;98234.22;;;29.20
22286;BMP180;11311;52.192;20.900;2023-08-06T11:17:40;98227.78;;;30.02
22286;BMP180;11311;52.192;20.900;2023-08-06T11:20:10;98232.97;;;30.60
22286;BMP180;11311;52.192;20.900;2023-08-06T11:22:42;98227.69;;;30.46
22286;BMP180;11311;52.192;20.900;2023-08-06T11:25:12;98223.53;;;30.35
22286;BMP180;11311;52.192;20.900;2023-08-06T11:27:41;98226.09;;;31.36
22286;BMP180;11311;52.192;20.900;2023-08-06T11:30:11;98245.44;;;30.24
22286;BMP180;11311;52.192;20.900;2023-08-06T11:32:46;98218.84;;;31.26
22286;BMP180;11311;52.192;20.900;2023-08-06T11:35:16;98248.50;;;30.93
22286;BMP180;11311;52.192;20.900;2023-08-06T11:37:45;98208.22;;;31.08
22286;BMP180;11311;52.192;20.900;2023-08-06T11:40:16;98224.50;;;31.12
22286;BMP180;11311;52.192;20.900;2023-08-06T11:42:46;98221.25;;;30.93
22286;BMP180;11311;52.192;20.900;2023-08-06T11:45:16;98193.13;;;32.16
22286;BMP180;11311;52.192;20.900;2023-08-06T11:47:50;98193.88;;;32.91
22286;BMP180;11311;52.192;20.900;2023-08-06T11:50:23;98175.41;;;32.43
22286;BMP180;11311;52.192;20.900;2023-08-06T11:52:56;98179.03;;;35.01
22286;BMP180;11311;52.192;20.900;2023-08-06T11:55:28;98197.06;;;34.11
22286;BMP180;11311;52.192;20.900;2023-08-06T11:57:57;98178.25;;;33.40
22286;BMP180;11311;52.192;20.900;2023-08-06T12:00:27;98185.03;;;32.32
22286;BMP180;11311;52.192;20.900;2023-08-06T12:02:57;98176.06;;;32.67
22286;BMP180;11311;52.192;20.900;2023-08-06T12:05:30;98171.47;;;33.44
22286;BMP180;11311;52.192;20.900;2023-08-06T12:08:02;98151.28;;;33.10
22286;BMP180;11311;52.192;20.900;2023-08-06T12:10:32;98165.81;;;31.96
22286;BMP180;11311;52.192;20.900;2023-08-06T12:13:01;98151.28;;;30.60
22286;BMP180;11311;52.192;20.900;2023-08-06T12:15:31;98160.00;;;30.48
22286;BMP180;11311;52.192;20.900;2023-08-06T12:18:02;98146.97;;;29.99
22286;BMP180;11311;52.192;20.900;2023-08-06T12:20:31;98138.84;;;30.59
22286;BMP180;11311;52.192;20.900;2023-08-06T12:23:00;98145.00;;;30.63
22286;BMP180;11311;52.192;20.900;2023-08-06T12:25:29;98146.88;;;30.06
22286;BMP180;11311;52.192;20.900;2023-08-06T12:28:00;98152.31;;;30.06
22286;BMP180;11311;52.192;20.900;2023-08-06T12:30:30;98153.72;;;29.84
22286;BMP180;11311;52.192;20.900;2023-08-06T12:32:58;98132.19;;;29.63
22286;BMP180;11311;52.192;20.900;2023-08-06T12:35:28;98157.06;;;29.58
22286;BMP180;11311;52.192;20.900;2023-08-06T12:37:58;98148.50;;;29.63
22286;BMP180;11311;52.192;20.900;2023-08-06T12:40:26;98159.41;;;29.56
22286;BMP180;11311;52.192;20.900;2023-08-06T12:43:07;98172.66;;;29.50
22286;BMP180;11311;52.192;20.900;2023-08-06T12:45:36;98158.09;;;29.27
22286;BMP180;11311;52.192;20.900;2023-08-06T12:48:05;98155.00;;;29.25
22286;BMP180;11311;52.192;20.900;2023-08-06T12:50:34;98159.53;;;29.45
22286;BMP180;11311;52.192;20.900;2023-08-06T12:53:03;98175.63;;;30.44
22286;BMP180;11311;52.192;20.900;2023-08-06T12:55:33;98165.38;;;30.55
22286;BMP180;11311;52.192;20.900;2023-08-06T12:58:02;98165.19;;;30.06
22286;BMP180;11311;52.192;20.900;2023-08-06T13:00:33;98160.63;;;29.92
22286;BMP180;11311;52.192;20.900;2023-08-06T13:03:02;98149.53;;;29.72
22286;BMP180;11311;52.192;20.900;2023-08-06T13:05:31;98154.38;;;29.95
22286;BMP180;11311;52.192;20.900;2023-08-06T13:08:00;98142.97;;;29.70
22286;BMP180;11311;52.192;20.900;2023-08-06T13:10:29;98154.59;;;29.74
22286;BMP180;11311;52.192;20.900;2023-08-06T13:12:58;98169.41;;;29.66
22286;BMP180;11311;52.192;20.900;2023-08-06T13:15:27;98150.22;;;29.43
22286;BMP180;11311;52.192;20.900;2023-08-06T13:17:58;98155.16;;;29.03
22286;BMP180;11311;52.192;20.900;2023-08-06T13:20:29;98191.50;;;28.41
22286;BMP180;11311;52.192;20.900;2023-08-06T13:22:59;98217.44;;;29.32
22286;BMP180;11311;52.192;20.900;2023-08-06T13:25:28;98185.22;;;29.34
22286;BMP180;11311;52.192;20.900;2023-08-06T13:27:57;98160.00;;;29.30
22286;BMP180;11311;52.192;20.900;2023-08-06T13:30:26;98171.13;;;30.27
22286;BMP180;11311;52.192;20.900;2023-08-06T13:32:54;98182.91;;;29.80
22286;BMP180;11311;52.192;20.900;2023-08-06T13:35:25;98186.91;;;29.14
22286;BMP180;11311;52.192;20.900;2023-08-06T13:37:54;98184.06;;;28.59
22286;BMP180;11311;52.192;20.900;2023-08-06T13:40:23;98186.78;;;29.79
22286;BMP180;11311;52.192;20.900;2023-08-06T13:42:52;98179.41;;;29.32
22286;BMP180;11311;52.192;20.900;2023-08-06T13:45:21;98159.91;;;28.85
22286;BMP180;11311;52.192;20.900;2023-08-06T13:47:50;98172.47;;;28.51
22286;BMP180;11311;52.192;20.900;2023-08-06T13:50:19;98182.22;;;28.38
22286;BMP180;11311;52.192;20.900;2023-08-06T13:52:50;98171.53;;;28.89
22286;BMP180;11311;52.192;20.900;2023-08-06T13:55:20;98173.22;;;28.62
22286;BMP180;11311;52.192;20.900;2023-08-06T13:57:49;98174.91;;;28.07
22286;BMP180;11311;52.192;20.900;2023-08-06T14:00:18;98176.47;;;27.62
22286;BMP180;11311;52.192;20.900;2023-08-06T14:02:47;98179.59;;;27.54
22286;BMP180;11311;52.192;20.900;2023-08-06T14:05:16;98194.28;;;27.74
22286;BMP180;11311;52.192;20.900;2023-08-06T14:07:45;98190.44;;;27.89
22286;BMP180;11311;52.192;20.900;2023-08-06T14:10:16;98201.97;;;28.28
22286;BMP180;11311;52.192;20.900;2023-08-06T14:12:46;98198.63;;;28.96